Time;durP1;ratioP1;P1;durP2;ratioP2;P2;SDS_P1;SDS_P2;PMS_P1;PMS_P2;Temp;Humidity;BMP_temperature;BMP_pressure;BME280_temperature;BME280_humidity;BME280_pressure;Samples;Min_cycle;Max_cycle;Signal;HPM_P1;HPM_P2
2023/12/08 00:00:08;;;;;;;;;;;;;;;1.88;100.00;100570.75;5125063;28;19916;-37
2023/12/08 00:02:34;;;;;;;;;;;;;;;1.77;100.00;100577.97;5125809;28;19973;-38
2023/12/08 00:04:59;;;;;;;;;;;;;;;1.74;100.00;100568.47;5123188;28;19926;-38
2023/12/08 00:07:25;;;;;;;;;;;;;;;1.69;100.00;100560.06;5117996;28;19974;-38
2023/12/08 00:09:50;;;;;;;;;;;;;;;1.70;100.00;100546.66;5118884;28;20426;-39
2023/12/08 00:12:15;;;;;;;;;;;;;;;1.66;100.00;100553.19;5122601;28;19927;-36
2023/12/08 00:14:41;;;;;;;;;;;;;;;1.58;100.00;100546.84;5125129;28;19928;-37
2023/12/08 00:17:06;;;;;;;;;;;;;;;1.48;100.00;100537.03;5127596;28;20369;-39
2023/12/08 00:19:32;;;;;;;;;;;;;;;1.50;100.00;100555.47;5122413;28;20352;-37
2023/12/08 00:21:57;;;;;;;;;;;;;;;1.42;100.00;100572.06;5121037;28;19942;-37
2023/12/08 00:24:22;;;;;;;;;;;;;;;1.39;100.00;100559.03;5119580;28;19924;-38
2023/12/08 00:26:47;;;;;;;;;;;;;;;1.35;100.00;100568.22;5124658;28;19934;-37
2023/12/08 00:29:12;;;;;;;;;;;;;;;1.38;100.00;100569.78;5121911;28;19924;-38
2023/12/08 00:31:38;;;;;;;;;;;;;;;1.41;100.00;100578.31;5119617;28;19934;-37
2023/12/08 00:34:03;;;;;;;;;;;;;;;1.35;100.00;100576.19;5117825;28;19920;-38
2023/12/08 00:36:28;;;;;;;;;;;;;;;1.31;100.00;100574.75;5120808;28;19927;-37
2023/12/08 00:38:54;;;;;;;;;;;;;;;1.33;100.00;100572.81;5121651;28;19920;-38
2023/12/08 00:41:19;;;;;;;;;;;;;;;1.33;100.00;100575.47;5126036;28;20401;-36
2023/12/08 00:43:44;;;;;;;;;;;;;;;1.26;100.00;100574.28;5126349;28;19920;-38
2023/12/08 00:46:09;;;;;;;;;;;;;;;1.27;100.00;100586.59;5123043;28;20383;-37
2023/12/08 00:48:35;;;;;;;;;;;;;;;1.24;100.00;100582.38;5120029;28;19919;-39
2023/12/08 00:51:00;;;;;;;;;;;;;;;1.27;100.00;100587.41;5119133;28;19997;-36
2023/12/08 00:53:25;;;;;;;;;;;;;;;1.23;100.00;100595.75;5124018;28;19920;-38
2023/12/08 00:55:51;;;;;;;;;;;;;;;1.24;100.00;100586.84;5125837;28;19920;-39
2023/12/08 00:58:16;;;;;;;;;;;;;;;1.19;100.00;100583.75;5098344;28;19916;-36
2023/12/08 01:00:42;;;;;;;;;;;;;;;1.19;100.00;100575.78;5125781;28;19927;-37
2023/12/08 01:03:07;;;;;;;;;;;;;;;1.25;100.00;100577.91;5128837;28;19919;-37
2023/12/08 01:05:32;;;;;;;;;;;;;;;1.15;100.00;100571.69;5128614;28;19920;-38
2023/12/08 01:07:57;;;;;;;;;;;;;;;1.09;100.00;100576.53;5127650;28;19920;-41
2023/12/08 01:10:22;;;;;;;;;;;;;;;0.98;100.00;100578.41;5116749;28;20282;-39
2023/12/08 01:12:48;;;;;;;;;;;;;;;1.02;100.00;100572.69;5113965;28;20361;-40
2023/12/08 01:15:13;;;;;;;;;;;;;;;1.08;100.00;100571.38;5113882;28;20388;-40
2023/12/08 01:17:38;;;;;;;;;;;;;;;1.04;100.00;100581.38;5113756;28;19920;-42
2023/12/08 01:20:05;;;;;;;;;;;;;;;0.92;100.00;100574.44;5113395;28;19922;-40
2023/12/08 01:22:30;;;;;;;;;;;;;;;0.90;100.00;100567.59;5113694;28;19927;-40
2023/12/08 01:24:55;;;;;;;;;;;;;;;0.90;100.00;100560.50;5113463;28;19916;-42
2023/12/08 01:27:21;;;;;;;;;;;;;;;0.92;100.00;100550.59;5111996;28;20274;-42
2023/12/08 01:29:46;;;;;;;;;;;;;;;0.87;100.00;100558.09;5113047;28;19916;-42
2023/12/08 01:32:11;;;;;;;;;;;;;;;0.87;100.00;100551.00;5112980;28;19945;-40
2023/12/08 01:34:36;;;;;;;;;;;;;;;0.85;100.00;100544.97;5113411;28;19923;-42
2023/12/08 01:37:02;;;;;;;;;;;;;;;0.91;100.00;100533.00;5112339;28;19920;-40
2023/12/08 01:39:27;;;;;;;;;;;;;;;0.88;100.00;100523.50;5113322;28;20010;-40
2023/12/08 01:41:52;;;;;;;;;;;;;;;0.90;100.00;100530.50;5112371;28;19920;-41
2023/12/08 01:44:17;;;;;;;;;;;;;;;0.90;100.00;100526.03;5113136;28;20022;-42
2023/12/08 01:46:43;;;;;;;;;;;;;;;0.90;100.00;100518.09;5112699;28;19920;-42
2023/12/08 01:49:08;;;;;;;;;;;;;;;0.95;100.00;100502.66;5111486;28;19931;-43
2023/12/08 01:51:33;;;;;;;;;;;;;;;0.90;100.00;100494.25;5111209;28;19920;-43
2023/12/08 01:53:58;;;;;;;;;;;;;;;0.87;100.00;100492.69;5111028;28;19948;-42
2023/12/08 01:56:23;;;;;;;;;;;;;;;0.87;100.00;100494.50;5111307;28;19920;-42
2023/12/08 01:58:49;;;;;;;;;;;;;;;0.93;100.00;100509.88;5112346;28;20003;-40
2023/12/08 02:01:14;;;;;;;;;;;;;;;0.97;100.00;100495.41;5112164;28;19967;-42
2023/12/08 02:03:39;;;;;;;;;;;;;;;0.99;100.00;100504.06;5112221;28;19920;-40
2023/12/08 02:06:05;;;;;;;;;;;;;;;1.03;100.00;100486.94;5111959;28;20709;-42
2023/12/08 02:08:30;;;;;;;;;;;;;;;1.04;100.00;100479.84;5112144;28;20015;-42
2023/12/08 02:10:55;;;;;;;;;;;;;;;1.05;100.00;100476.22;5111987;28;20053;-40
2023/12/08 02:13:21;;;;;;;;;;;;;;;1.14;100.00;100479.91;5114711;28;19955;-40
2023/12/08 02:15:46;;;;;;;;;;;;;;;1.14;100.00;100477.25;5114814;28;19985;-40
2023/12/08 02:18:12;;;;;;;;;;;;;;;1.07;100.00;100485.72;5112053;28;19966;-41
2023/12/08 02:20:38;;;;;;;;;;;;;;;1.11;100.00;100494.25;5111560;28;19927;-41
2023/12/08 02:23:03;;;;;;;;;;;;;;;1.09;100.00;100490.88;5110810;28;19923;-39
2023/12/08 02:25:29;;;;;;;;;;;;;;;1.10;100.00;100496.03;5111371;28;19922;-39
2023/12/08 02:27:54;;;;;;;;;;;;;;;1.09;100.00;100499.69;5112536;28;19942;-40
2023/12/08 02:30:19;;;;;;;;;;;;;;;1.13;100.00;100515.31;5111170;28;20007;-39
2023/12/08 02:32:50;;;;;;;;;;;;;;;1.14;100.00;100524.97;5112008;28;20010;-40
2023/12/08 02:35:15;;;;;;;;;;;;;;;1.13;100.00;100531.22;5112776;28;19920;-40
2023/12/08 02:37:42;;;;;;;;;;;;;;;1.13;100.00;100531.22;5112261;28;19920;-39
2023/12/08 02:40:08;;;;;;;;;;;;;;;1.16;100.00;100531.81;5111495;28;19920;-41
2023/12/08 02:42:33;;;;;;;;;;;;;;;1.15;100.00;100531.94;5111775;28;19964;-40
2023/12/08 02:44:58;;;;;;;;;;;;;;;1.16;100.00;100533.59;5111717;28;19943;-40
2023/12/08 02:47:23;;;;;;;;;;;;;;;1.20;100.00;100521.78;5112070;28;19920;-41
2023/12/08 02:49:48;;;;;;;;;;;;;;;1.22;100.00;100514.56;5112310;28;20019;-42
2023/12/08 02:52:14;;;;;;;;;;;;;;;1.25;100.00;100515.13;5116702;28;19959;-41
2023/12/08 02:54:39;;;;;;;;;;;;;;;1.25;100.00;100509.00;5117185;28;19923;-40
2023/12/08 02:57:04;;;;;;;;;;;;;;;1.32;100.00;100510.16;5115698;28;19920;-39
2023/12/08 02:59:30;;;;;;;;;;;;;;;1.28;100.00;100511.38;5114010;28;20305;-40
2023/12/08 03:01:55;;;;;;;;;;;;;;;1.23;100.00;100502.97;5114631;28;20278;-41
2023/12/08 03:04:21;;;;;;;;;;;;;;;1.24;100.00;100496.72;5113329;28;20332;-42
2023/12/08 03:06:46;;;;;;;;;;;;;;;1.26;100.00;100498.28;5113327;28;19954;-40
2023/12/08 03:09:11;;;;;;;;;;;;;;;1.27;100.00;100475.25;5111935;28;19919;-40
2023/12/08 03:11:37;;;;;;;;;;;;;;;1.31;100.00;100477.47;5112152;28;19954;-40
2023/12/08 03:14:02;;;;;;;;;;;;;;;1.35;100.00;100448.91;5115379;28;19919;-40
2023/12/08 03:16:27;;;;;;;;;;;;;;;1.34;100.00;100433.97;5116171;28;19972;-42
2023/12/08 03:18:52;;;;;;;;;;;;;;;1.36;100.00;100434.66;5115698;28;19942;-39
2023/12/08 03:21:21;;;;;;;;;;;;;;;1.31;100.00;100450.13;5116493;28;19932;-39
2023/12/08 03:23:47;;;;;;;;;;;;;;;1.32;100.00;100435.94;5115560;28;20487;-38
2023/12/08 03:26:12;;;;;;;;;;;;;;;1.34;100.00;100423.34;5115880;28;19965;-40
2023/12/08 03:28:37;;;;;;;;;;;;;;;1.36;100.00;100450.59;5115568;28;19931;-39
2023/12/08 03:31:02;;;;;;;;;;;;;;;1.39;100.00;100458.25;5116983;28;19923;-40
2023/12/08 03:33:28;;;;;;;;;;;;;;;1.45;100.00;100440.97;5115247;27;19931;-39
2023/12/08 03:35:53;;;;;;;;;;;;;;;1.46;100.00;100437.38;5116065;28;19919;-37
2023/12/08 03:38:18;;;;;;;;;;;;;;;1.39;100.00;100446.81;5115985;28;19927;-40
2023/12/08 03:40:43;;;;;;;;;;;;;;;1.40;100.00;100452.00;5116066;28;19919;-39
2023/12/08 03:43:08;;;;;;;;;;;;;;;1.39;100.00;100452.97;5115745;28;19915;-40
2023/12/08 03:45:34;;;;;;;;;;;;;;;1.42;100.00;100443.91;5116319;28;19964;-39
2023/12/08 03:47:59;;;;;;;;;;;;;;;1.39;100.00;100452.97;5116551;28;19920;-39
2023/12/08 03:50:24;;;;;;;;;;;;;;;1.42;100.00;100438.59;5117658;28;20014;-40
2023/12/08 03:52:54;;;;;;;;;;;;;;;1.45;100.00;100439.19;5115087;28;19927;-39
2023/12/08 03:55:19;;;;;;;;;;;;;;;1.49;100.00;100442.41;5115307;28;20286;-38
2023/12/08 03:57:44;;;;;;;;;;;;;;;1.49;100.00;100443.25;5115085;28;19920;-39
2023/12/08 04:00:10;;;;;;;;;;;;;;;1.54;100.00;100453.47;5115143;28;19972;-38
2023/12/08 04:02:36;;;;;;;;;;;;;;;1.49;100.00;100453.84;5115148;28;20335;-39
2023/12/08 04:05:01;;;;;;;;;;;;;;;1.52;100.00;100442.97;5115367;28;19937;-39
2023/12/08 04:07:26;;;;;;;;;;;;;;;1.50;100.00;100434.34;5114599;28;20458;-38
2023/12/08 04:09:51;;;;;;;;;;;;;;;1.60;100.00;100429.03;5114996;28;19999;-39
2023/12/08 04:12:17;;;;;;;;;;;;;;;1.63;100.00;100425.28;5115369;28;20396;-39
2023/12/08 04:14:42;;;;;;;;;;;;;;;1.54;100.00;100426.94;5117969;28;20567;-39
2023/12/08 04:17:07;;;;;;;;;;;;;;;1.57;100.00;100415.22;5119953;28;20061;-39
2023/12/08 04:19:32;;;;;;;;;;;;;;;1.60;100.00;100425.56;5120647;28;19920;-39
2023/12/08 04:21:57;;;;;;;;;;;;;;;1.64;100.00;100424.31;5119840;28;19926;-39
2023/12/08 04:24:23;;;;;;;;;;;;;;;1.61;100.00;100435.22;5117333;28;20445;-38
2023/12/08 04:26:48;;;;;;;;;;;;;;;1.66;100.00;100443.56;5115198;28;20386;-39
2023/12/08 04:29:13;;;;;;;;;;;;;;;1.67;100.00;100442.63;5113348;28;20372;-39
2023/12/08 04:31:38;;;;;;;;;;;;;;;1.67;100.00;100439.97;5114809;28;19919;-39
2023/12/08 04:34:03;;;;;;;;;;;;;;;1.72;100.00;100443.06;5114236;28;19920;-39
2023/12/08 04:36:29;;;;;;;;;;;;;;;1.70;100.00;100437.03;5114599;28;19926;-40
2023/12/08 04:38:54;;;;;;;;;;;;;;;1.74;100.00;100425.19;5114717;28;19919;-38
2023/12/08 04:41:19;;;;;;;;;;;;;;;1.71;100.00;100425.44;5114302;28;19920;-39
2023/12/08 04:43:44;;;;;;;;;;;;;;;1.77;100.00;100413.47;5114204;28;19988;-39
2023/12/08 04:46:10;;;;;;;;;;;;;;;1.78;100.00;100413.31;5114193;28;19916;-37
2023/12/08 04:48:35;;;;;;;;;;;;;;;1.77;100.00;100414.31;5114703;28;19955;-39
2023/12/08 04:51:00;;;;;;;;;;;;;;;1.76;100.00;100423.22;5114249;28;20003;-39
2023/12/08 04:53:25;;;;;;;;;;;;;;;1.80;100.00;100419.34;5114185;28;20413;-39
2023/12/08 04:55:51;;;;;;;;;;;;;;;1.78;100.00;100415.97;5118505;28;19926;-40
2023/12/08 04:58:16;;;;;;;;;;;;;;;1.82;100.00;100414.75;5119616;28;19928;-39
2023/12/08 05:00:41;;;;;;;;;;;;;;;1.83;100.00;100415.59;5120701;28;20030;-39
2023/12/08 05:03:06;;;;;;;;;;;;;;;1.85;100.00;100414.47;5116175;28;19994;-40
2023/12/08 05:05:32;;;;;;;;;;;;;;;1.83;100.00;100413.75;5116328;28;19934;-38
2023/12/08 05:07:57;;;;;;;;;;;;;;;1.90;100.00;100419.38;5117977;28;19920;-38
2023/12/08 05:10:22;;;;;;;;;;;;;;;1.96;100.00;100438.22;5118836;28;19928;-39
2023/12/08 05:12:47;;;;;;;;;;;;;;;1.95;100.00;100433.09;5118956;28;19927;-40
2023/12/08 05:15:13;;;;;;;;;;;;;;;1.93;100.00;100446.47;5114354;28;19944;-39
2023/12/08 05:17:38;;;;;;;;;;;;;;;1.98;100.00;100438.09;5112213;28;19928;-39
2023/12/08 05:20:04;;;;;;;;;;;;;;;1.98;100.00;100419.53;5112993;28;19962;-39
2023/12/08 05:22:29;;;;;;;;;;;;;;;1.97;100.00;100415.19;5114086;28;19927;-39
2023/12/08 05:24:54;;;;;;;;;;;;;;;1.97;100.00;100423.13;5113549;28;19919;-38
2023/12/08 05:27:19;;;;;;;;;;;;;;;1.97;100.00;100415.19;5112899;28;19923;-39
2023/12/08 05:29:45;;;;;;;;;;;;;;;1.95;100.00;100412.69;5112755;28;19932;-39
2023/12/08 05:32:10;;;;;;;;;;;;;;;1.98;100.00;100412.41;5113503;28;19919;-39
2023/12/08 05:34:35;;;;;;;;;;;;;;;2.01;100.00;100413.13;5109908;28;19946;-39
2023/12/08 05:37:00;;;;;;;;;;;;;;;2.05;100.00;100423.28;5110393;28;20323;-39
2023/12/08 05:39:26;;;;;;;;;;;;;;;2.02;100.00;100426.22;5113503;28;19973;-39
2023/12/08 05:41:51;;;;;;;;;;;;;;;2.03;100.00;100427.06;5114945;28;19920;-39
2023/12/08 05:44:16;;;;;;;;;;;;;;;2.07;100.00;100421.34;5118260;28;20187;-39
2023/12/08 05:46:41;;;;;;;;;;;;;;;2.09;100.00;100423.88;5118043;28;19920;-39
2023/12/08 05:49:07;;;;;;;;;;;;;;;2.15;100.00;100418.84;5116372;28;19966;-38
2023/12/08 05:51:32;;;;;;;;;;;;;;;2.15;100.00;100433.94;5113401;28;19998;-39
2023/12/08 05:53:57;;;;;;;;;;;;;;;2.12;100.00;100434.22;5113448;28;19997;-38
2023/12/08 05:56:22;;;;;;;;;;;;;;;2.11;100.00;100443.16;5112439;28;19920;-37
2023/12/08 05:58:48;;;;;;;;;;;;;;;2.16;100.00;100446.25;5109642;28;19919;-39
2023/12/08 06:01:14;;;;;;;;;;;;;;;2.19;100.00;100445.97;5111304;28;19919;-40
2023/12/08 06:03:39;;;;;;;;;;;;;;;2.25;100.00;100449.88;5112361;28;19919;-39
2023/12/08 06:06:04;;;;;;;;;;;;;;;2.23;100.00;100447.34;5111433;28;19949;-39
2023/12/08 06:08:30;;;;;;;;;;;;;;;2.27;100.00;100454.09;5113055;28;19924;-38
2023/12/08 06:10:55;;;;;;;;;;;;;;;2.29;100.00;100448.63;5113491;27;19919;-39
2023/12/08 06:13:21;;;;;;;;;;;;;;;2.29;100.00;100441.53;5112969;28;20445;-37
2023/12/08 06:15:46;;;;;;;;;;;;;;;2.29;100.00;100441.53;5112901;28;19919;-40
2023/12/08 06:18:11;;;;;;;;;;;;;;;2.29;100.00;100440.66;5122763;27;19969;-38
2023/12/08 06:20:36;;;;;;;;;;;;;;;2.28;100.00;100442.47;5118378;28;20325;-38
2023/12/08 06:23:02;;;;;;;;;;;;;;;2.28;100.00;100439.00;5120040;28;20230;-39
2023/12/08 06:25:27;;;;;;;;;;;;;;;2.27;100.00;100448.78;5116681;28;20362;-38
2023/12/08 06:27:53;;;;;;;;;;;;;;;2.30;100.00;100459.13;5114614;28;20293;-39
2023/12/08 06:30:18;;;;;;;;;;;;;;;2.28;100.00;100463.72;5113598;28;20390;-39
2023/12/08 06:32:44;;;;;;;;;;;;;;;2.27;100.00;100459.41;5114128;28;19920;-39
2023/12/08 06:35:09;;;;;;;;;;;;;;;2.28;100.00;100455.75;5117965;28;19919;-39
2023/12/08 06:37:35;;;;;;;;;;;;;;;2.31;100.00;100457.28;5115645;28;19979;-39
2023/12/08 06:40:00;;;;;;;;;;;;;;;2.35;100.00;100462.19;5113397;28;19997;-39
2023/12/08 06:42:25;;;;;;;;;;;;;;;2.42;100.00;100451.84;5112795;28;20048;-38
2023/12/08 06:44:50;;;;;;;;;;;;;;;2.46;100.00;100457.75;5113183;28;19923;-40
2023/12/08 06:47:15;;;;;;;;;;;;;;;2.44;100.00;100451.72;5113760;28;19939;-39
2023/12/08 06:49:41;;;;;;;;;;;;;;;2.44;100.00;100455.22;5116973;28;19916;-39
2023/12/08 06:52:06;;;;;;;;;;;;;;;2.45;100.00;100461.34;5117391;28;20034;-39
2023/12/08 06:54:31;;;;;;;;;;;;;;;2.46;100.00;100460.41;5117018;28;19933;-39
2023/12/08 06:56:56;;;;;;;;;;;;;;;2.46;100.00;100450.59;5118650;28;20012;-39
2023/12/08 06:59:22;;;;;;;;;;;;;;;2.45;100.00;100462.22;5118018;28;19920;-38
2023/12/08 07:01:47;;;;;;;;;;;;;;;2.45;100.00;100462.22;5116487;28;19927;-39
2023/12/08 07:04:12;;;;;;;;;;;;;;;2.48;100.00;100469.06;5116475;28;20030;-39
2023/12/08 07:06:37;;;;;;;;;;;;;;;2.50;100.00;100467.09;5116918;28;19916;-38
2023/12/08 07:09:03;;;;;;;;;;;;;;;2.50;100.00;100472.41;5116634;28;20434;-38
2023/12/08 07:11:28;;;;;;;;;;;;;;;2.50;100.00;100477.72;5116451;28;20373;-39
2023/12/08 07:13:53;;;;;;;;;;;;;;;2.52;100.00;100479.25;5116597;28;20022;-38
2023/12/08 07:16:18;;;;;;;;;;;;;;;2.54;100.00;100476.47;5116673;28;20286;-40
2023/12/08 07:18:43;;;;;;;;;;;;;;;2.66;100.00;100475.38;5116860;28;20362;-39
2023/12/08 07:21:09;;;;;;;;;;;;;;;2.62;100.00;100480.09;5116564;28;20299;-39
2023/12/08 07:23:34;;;;;;;;;;;;;;;2.67;100.00;100477.03;5116636;28;19926;-39
2023/12/08 07:26:00;;;;;;;;;;;;;;;2.67;100.00;100482.34;5119004;28;19915;-39
2023/12/08 07:28:25;;;;;;;;;;;;;;;2.71;100.00;100475.75;5119646;28;19961;-40
2023/12/08 07:30:50;;;;;;;;;;;;;;;2.74;100.00;100486.13;5118825;28;20046;-39
2023/12/08 07:33:15;;;;;;;;;;;;;;;2.69;100.00;100485.72;5117568;28;19924;-40
2023/12/08 07:35:41;;;;;;;;;;;;;;;2.73;100.00;100480.94;5116091;28;19927;-38
2023/12/08 07:38:06;;;;;;;;;;;;;;;2.77;100.00;100482.34;5116492;28;19920;-39
2023/12/08 07:40:32;;;;;;;;;;;;;;;2.79;100.00;100478.59;5117373;28;19923;-39
2023/12/08 07:42:57;;;;;;;;;;;;;;;2.87;100.00;100493.81;5120343;28;19920;-38
2023/12/08 07:45:22;;;;;;;;;;;;;;;2.83;100.00;100487.94;5119364;28;19915;-39
2023/12/08 07:47:47;;;;;;;;;;;;;;;2.85;100.00;100501.94;5119706;28;19922;-38
2023/12/08 07:50:13;;;;;;;;;;;;;;;2.92;100.00;100504.84;5121447;28;19916;-39
2023/12/08 07:52:39;;;;;;;;;;;;;;;2.97;100.00;100520.38;5117412;28;19915;-40
2023/12/08 07:55:05;;;;;;;;;;;;;;;2.96;100.00;100518.72;5116142;28;19919;-39
2023/12/08 07:57:30;;;;;;;;;;;;;;;2.98;100.00;100524.75;5116261;28;19915;-39
2023/12/08 07:59:55;;;;;;;;;;;;;;;2.98;100.00;100525.56;5113583;28;20397;-39
2023/12/08 08:02:21;;;;;;;;;;;;;;;2.98;100.00;100522.09;5115272;28;19927;-39
2023/12/08 08:04:46;;;;;;;;;;;;;;;3.01;100.00;100521.78;5115578;28;19919;-39
2023/12/08 08:07:11;;;;;;;;;;;;;;;3.04;100.00;100527.66;5114280;28;19920;-40
2023/12/08 08:09:36;;;;;;;;;;;;;;;3.10;100.00;100534.22;5115917;28;19927;-39
2023/12/08 08:12:02;;;;;;;;;;;;;;;3.11;100.00;100530.59;5115208;28;19926;-39
2023/12/08 08:14:27;;;;;;;;;;;;;;;3.15;100.00;100526.66;5115431;28;20014;-38
2023/12/08 08:16:52;;;;;;;;;;;;;;;3.21;100.00;100528.78;5115370;28;19916;-39
2023/12/08 08:19:18;;;;;;;;;;;;;;;3.20;100.00;100524.41;5115287;28;19963;-39
2023/12/08 08:21:44;;;;;;;;;;;;;;;3.24;100.00;100532.97;5115186;28;19920;-39
2023/12/08 08:24:09;;;;;;;;;;;;;;;3.25;100.00;100535.47;5115200;28;19916;-38
2023/12/08 08:26:34;;;;;;;;;;;;;;;3.32;100.00;100546.41;5114394;28;19920;-40
2023/12/08 08:28:59;;;;;;;;;;;;;;;3.36;100.00;100546.94;5115091;28;19972;-40
2023/12/08 08:31:24;;;;;;;;;;;;;;;3.36;100.00;100546.94;5119421;28;20026;-39
2023/12/08 08:33:50;;;;;;;;;;;;;;;3.41;100.00;100555.34;5120398;28;19959;-40
2023/12/08 08:36:15;;;;;;;;;;;;;;;3.44;100.00;100547.06;5121611;28;19969;-40
2023/12/08 08:38:40;;;;;;;;;;;;;;;3.53;100.00;100543.56;5117370;28;19916;-38
2023/12/08 08:41:05;;;;;;;;;;;;;;;3.66;100.00;100549.41;5115851;28;19923;-38
2023/12/08 08:43:30;;;;;;;;;;;;;;;3.74;100.00;100557.50;5115067;28;19916;-40
2023/12/08 08:45:56;;;;;;;;;;;;;;;3.69;100.00;100564.25;5114995;28;19923;-40
2023/12/08 08:48:21;;;;;;;;;;;;;;;3.72;100.00;100563.97;5114583;28;19916;-40
2023/12/08 08:50:48;;;;;;;;;;;;;;;3.77;100.00;100560.88;5113123;28;20014;-39
2023/12/08 08:53:14;;;;;;;;;;;;;;;3.82;100.00;100564.78;5114841;27;19946;-38
2023/12/08 08:55:39;;;;;;;;;;;;;;;3.86;100.00;100566.13;5113718;28;19920;-39
2023/12/08 08:58:04;;;;;;;;;;;;;;;3.94;100.00;100568.06;5113081;28;19961;-40
2023/12/08 09:00:29;;;;;;;;;;;;;;;3.96;100.00;100574.09;5114556;28;20018;-39
2023/12/08 09:02:57;;;;;;;;;;;;;;;4.00;100.00;100566.66;5114653;27;19919;-39
2023/12/08 09:05:22;;;;;;;;;;;;;;;4.02;100.00;100568.19;5113625;28;19928;-39
2023/12/08 09:07:47;;;;;;;;;;;;;;;4.08;100.00;100574.75;5113821;28;19929;-39
2023/12/08 09:10:12;;;;;;;;;;;;;;;4.09;100.00;100579.09;5119999;28;19920;-38
2023/12/08 09:12:38;;;;;;;;;;;;;;;4.13;100.00;100576.00;5122079;28;20060;-40
2023/12/08 09:15:03;;;;;;;;;;;;;;;4.21;100.00;100571.75;5121185;28;20476;-39
2023/12/08 09:17:31;;;;;;;;;;;;;;;4.29;100.00;100569.19;5118623;28;20073;-40
2023/12/08 09:19:56;;;;;;;;;;;;;;;4.27;100.00;100579.19;5114505;28;19926;-39
2023/12/08 09:22:22;;;;;;;;;;;;;;;4.37;100.00;100585.25;5114831;28;19951;-39
2023/12/08 09:24:47;;;;;;;;;;;;;;;4.38;100.00;100592.28;5116371;28;19981;-38
2023/12/08 09:27:12;;;;;;;;;;;;;;;4.39;100.00;100591.28;5116662;28;20366;-39
2023/12/08 09:29:37;;;;;;;;;;;;;;;4.42;100.00;100593.66;5121131;28;20378;-39
2023/12/08 09:32:03;;;;;;;;;;;;;;;4.47;100.00;100591.38;5116028;28;20266;-39
2023/12/08 09:34:28;;;;;;;;;;;;;;;4.49;100.00;100591.25;5119126;28;19922;-39
2023/12/08 09:36:54;;;;;;;;;;;;;;;4.54;100.00;100592.47;5121709;28;19969;-39
2023/12/08 09:39:19;;;;;;;;;;;;;;;4.61;100.00;100611.41;5116622;28;19916;-38
2023/12/08 09:41:44;;;;;;;;;;;;;;;4.61;100.00;100614.06;5115348;28;19916;-38
2023/12/08 09:44:11;;;;;;;;;;;;;;;4.64;100.00;100620.91;5114205;28;19915;-39
2023/12/08 09:46:37;;;;;;;;;;;;;;;4.70;100.00;100614.97;5114222;28;19920;-38
2023/12/08 09:49:02;;;;;;;;;;;;;;;4.74;100.00;100613.69;5112662;28;20295;-38
2023/12/08 09:51:27;;;;;;;;;;;;;;;4.78;100.00;100615.06;5113771;28;19938;-39
2023/12/08 09:53:53;;;;;;;;;;;;;;;4.82;100.00;100605.78;5112077;28;19923;-39
2023/12/08 09:56:18;;;;;;;;;;;;;;;4.83;100.00;100610.97;5115051;28;19933;-40
2023/12/08 09:58:44;;;;;;;;;;;;;;;4.88;100.00;100620.34;5117344;28;19935;-39
2023/12/08 10:01:09;;;;;;;;;;;;;;;4.89;100.00;100620.19;5117277;28;19924;-40
2023/12/08 10:03:35;;;;;;;;;;;;;;;4.92;100.00;100621.72;5114444;28;19920;-38
2023/12/08 10:06:00;;;;;;;;;;;;;;;4.96;100.00;100626.59;5112331;28;19916;-39
2023/12/08 10:08:25;;;;;;;;;;;;;;;5.00;100.00;100622.66;5113701;28;19926;-39
2023/12/08 10:10:50;;;;;;;;;;;;;;;5.05;100.00;100623.03;5115590;28;19959;-39
2023/12/08 10:13:15;;;;;;;;;;;;;;;5.12;100.00;100627.75;5113667;28;20274;-39
2023/12/08 10:15:41;;;;;;;;;;;;;;;5.22;100.00;100629.34;5113142;28;20327;-39
2023/12/08 10:18:07;;;;;;;;;;;;;;;5.26;100.00;100630.72;5113500;28;20022;-40
2023/12/08 10:20:32;;;;;;;;;;;;;;;5.29;100.00;100624.22;5113037;28;20411;-39
2023/12/08 10:22:57;;;;;;;;;;;;;;;5.30;100.00;100623.25;5112395;28;20270;-39
2023/12/08 10:25:26;;;;;;;;;;;;;;;5.35;100.00;100615.63;5113204;28;19916;-39
2023/12/08 10:27:53;;;;;;;;;;;;;;;5.41;100.00;100607.00;5113062;28;19916;-39
2023/12/08 10:30:19;;;;;;;;;;;;;;;5.48;100.00;100612.59;5113038;28;19947;-39
2023/12/08 10:32:44;;;;;;;;;;;;;;;5.53;100.00;100615.63;5113329;28;19923;-39
2023/12/08 10:35:12;;;;;;;;;;;;;;;5.62;100.00;100613.84;5112997;28;19920;-40
2023/12/08 10:37:38;;;;;;;;;;;;;;;5.68;100.00;100619.38;5112990;28;19957;-39
2023/12/08 10:40:04;;;;;;;;;;;;;;;5.73;100.00;100621.59;5110967;28;19955;-39
2023/12/08 10:42:29;;;;;;;;;;;;;;;5.80;100.00;100622.66;5111696;28;19951;-39
2023/12/08 10:44:55;;;;;;;;;;;;;;;5.87;100.00;100626.38;5111177;28;19930;-40
2023/12/08 10:47:20;;;;;;;;;;;;;;;5.94;100.00;100619.44;5094294;28;19912;-39
2023/12/08 10:49:45;;;;;;;;;;;;;;;5.99;100.00;100626.16;5112238;28;19915;-40
2023/12/08 10:52:12;;;;;;;;;;;;;;;6.01;100.00;100625.00;5111468;28;20428;-40
2023/12/08 10:54:37;;;;;;;;;;;;;;;6.04;100.00;100629.19;5111381;28;20015;-40
2023/12/08 10:57:02;;;;;;;;;;;;;;;6.08;100.00;100631.41;5113091;28;20207;-40
2023/12/08 10:59:28;;;;;;;;;;;;;;;6.11;100.00;100632.91;5113037;28;19916;-40
2023/12/08 11:01:53;;;;;;;;;;;;;;;6.13;100.00;100633.56;5112991;28;19916;-40
2023/12/08 11:04:22;;;;;;;;;;;;;;;6.17;100.00;100634.13;5111533;28;19966;-39
2023/12/08 11:06:53;;;;;;;;;;;;;;;6.18;100.00;100635.78;5112652;28;19915;-40
2023/12/08 11:09:18;;;;;;;;;;;;;;;6.21;100.00;100652.31;5112657;28;19919;-38
2023/12/08 11:11:47;;;;;;;;;;;;;;;6.22;100.00;100654.00;5113006;28;19915;-39
2023/12/08 11:14:13;;;;;;;;;;;;;;;6.22;100.00;100643.31;5111559;28;19916;-38
2023/12/08 11:16:41;;;;;;;;;;;;;;;6.28;100.00;100642.69;5112413;28;19922;-40
2023/12/08 11:19:07;;;;;;;;;;;;;;;6.29;100.00;100635.50;5112344;28;20003;-39
2023/12/08 11:21:32;;;;;;;;;;;;;;;6.27;100.00;100641.03;5116179;28;19974;-39
2023/12/08 11:23:57;;;;;;;;;;;;;;;6.27;100.00;100630.31;5118570;28;19923;-39
2023/12/08 11:26:25;;;;;;;;;;;;;;;6.28;100.00;100626.66;5115248;28;19916;-39
2023/12/08 11:29:02;;;;;;;;;;;;;;;6.30;100.00;100630.00;5113051;28;19922;-39
2023/12/08 11:31:46;;;;;;;;;;;;;;;6.33;100.00;100629.69;5113667;28;20294;-37
2023/12/08 11:34:13;;;;;;;;;;;;;;;6.35;100.00;100633.03;5115771;28;19943;-38
2023/12/08 11:36:42;;;;;;;;;;;;;;;6.43;100.00;100639.44;5114438;28;19966;-40
2023/12/08 11:39:25;;;;;;;;;;;;;;;6.50;100.00;100637.78;5115829;28;19962;-39
2023/12/08 11:41:51;;;;;;;;;;;;;;;6.46;100.00;100631.09;5115853;28;19968;-38
2023/12/08 11:44:17;;;;;;;;;;;;;;;6.44;100.00;100641.09;5115721;28;19922;-39
2023/12/08 11:46:42;;;;;;;;;;;;;;;6.49;100.00;100638.78;5114439;28;19919;-39
2023/12/08 11:49:08;;;;;;;;;;;;;;;6.52;100.00;100641.13;5114669;28;19915;-39
2023/12/08 11:51:33;;;;;;;;;;;;;;;6.59;100.00;100650.19;5115834;28;19919;-39
2023/12/08 11:54:05;;;;;;;;;;;;;;;6.62;100.00;100649.88;5114564;28;20207;-38
2023/12/08 11:56:41;;;;;;;;;;;;;;;6.61;100.00;100642.84;5114723;28;19923;-39
2023/12/08 11:59:07;;;;;;;;;;;;;;;6.65;100.00;100651.38;5115513;28;19957;-39
2023/12/08 12:01:32;;;;;;;;;;;;;;;6.65;100.00;100652.22;5116436;28;19977;-40
2023/12/08 12:03:57;;;;;;;;;;;;;;;6.68;100.00;100653.72;5114267;28;19924;-38
2023/12/08 12:06:23;;;;;;;;;;;;;;;6.66;100.00;100653.91;5115384;28;20303;-38
2023/12/08 12:08:49;;;;;;;;;;;;;;;6.74;100.00;100648.59;5113945;28;19920;-39
2023/12/08 12:11:14;;;;;;;;;;;;;;;6.74;100.00;100643.22;5114675;28;19973;-38
2023/12/08 12:13:40;;;;;;;;;;;;;;;6.79;100.00;100650.75;5114841;28;19942;-39
2023/12/08 12:16:08;;;;;;;;;;;;;;;6.73;100.00;100656.75;5114289;28;19976;-39
2023/12/08 12:18:33;;;;;;;;;;;;;;;6.74;100.00;100643.22;5115094;28;20019;-40
2023/12/08 12:20:58;;;;;;;;;;;;;;;6.78;100.00;100649.91;5115047;28;19955;-39
2023/12/08 12:23:24;;;;;;;;;;;;;;;6.76;100.00;100648.41;5115003;28;19969;-39
2023/12/08 12:25:49;;;;;;;;;;;;;;;6.79;100.00;100648.94;5115040;28;19916;-39